createdAt,value
2018-03-28T00:01:43.896Z,12.03
2018-03-28T00:04:12.159Z,10.93
2018-03-28T00:06:40.400Z,11.35
2018-03-28T00:09:08.669Z,11.07
2018-03-28T00:11:36.932Z,12.03
2018-03-28T00:14:05.963Z,11.23
2018-03-28T00:16:35.573Z,12.27
2018-03-28T00:19:03.824Z,11.60
2018-03-28T00:21:32.928Z,11.13
2018-03-28T00:24:01.962Z,13.07
2018-03-28T00:26:31.352Z,11.12
2018-03-28T00:28:59.616Z,12.80
2018-03-28T00:31:28.626Z,12.13
2018-03-28T00:33:56.893Z,12.17
2018-03-28T00:36:25.921Z,12.93
2018-03-28T00:38:54.185Z,12.00
2018-03-28T00:41:22.422Z,12.50
2018-03-28T00:43:50.685Z,11.57
2018-03-28T00:46:20.570Z,11.87
2018-03-28T00:48:48.833Z,12.02
2018-03-28T00:51:34.612Z,13.13
2018-03-28T00:54:02.876Z,12.27
2018-03-28T00:56:33.144Z,12.32
2018-03-28T00:59:01.387Z,13.23
2018-03-28T01:01:30.419Z,12.10
2018-03-28T01:03:58.660Z,12.55
2018-03-28T01:06:27.672Z,12.77
2018-03-28T01:08:55.944Z,13.63
2018-03-28T01:11:24.969Z,14.47
2018-03-28T01:13:53.283Z,14.20
2018-03-28T01:16:21.568Z,14.50
2018-03-28T01:18:49.805Z,15.13
2018-03-28T01:21:18.052Z,15.17
2018-03-28T01:23:46.333Z,14.47
2018-03-28T01:26:14.574Z,14.53
2018-03-28T01:28:42.825Z,13.75
2018-03-28T01:31:11.093Z,14.60
2018-03-28T01:33:39.347Z,14.32
2018-03-28T01:36:07.612Z,14.07
2018-03-28T01:38:35.869Z,14.97
2018-03-28T01:41:04.132Z,13.53
2018-03-28T01:43:32.406Z,13.20
2018-03-28T01:46:01.420Z,14.00
2018-03-28T01:48:29.672Z,13.67
2018-03-28T01:50:58.696Z,12.73
2018-03-28T01:53:26.940Z,13.40
2018-03-28T01:55:55.961Z,12.50
2018-03-28T01:58:24.219Z,15.13
2018-03-28T02:00:53.241Z,13.62
2018-03-28T02:03:21.513Z,12.47
2018-03-28T02:05:50.521Z,12.97
2018-03-28T02:08:18.789Z,12.97
2018-03-28T02:10:47.042Z,13.07
2018-03-28T02:13:15.286Z,12.90
2018-03-28T02:15:43.550Z,13.13
2018-03-28T02:18:11.822Z,12.07
2018-03-28T02:20:41.316Z,12.52
2018-03-28T02:23:09.575Z,11.87
2018-03-28T02:25:38.604Z,12.00
2018-03-28T02:28:06.863Z,12.23
2018-03-28T02:30:36.315Z,12.53
2018-03-28T02:33:04.559Z,13.55
2018-03-28T02:35:33.569Z,14.00
2018-03-28T02:38:01.937Z,13.27
2018-03-28T02:40:30.956Z,13.30
2018-03-28T02:42:59.254Z,14.10
2018-03-28T02:45:28.236Z,12.73
2018-03-28T02:47:56.477Z,11.97
2018-03-28T02:50:24.741Z,12.25
2018-03-28T02:52:54.427Z,12.12
2018-03-28T02:55:22.668Z,11.97
2018-03-28T02:57:51.695Z,13.10
2018-03-28T03:00:19.947Z,13.38
2018-03-28T03:02:48.960Z,14.23
2018-03-28T03:05:17.214Z,12.63
2018-03-28T03:07:46.249Z,11.17
2018-03-28T03:10:14.494Z,13.03
2018-03-28T03:12:43.516Z,11.20
2018-03-28T03:15:11.762Z,13.10
2018-03-28T03:17:40.790Z,12.40
2018-03-28T03:20:09.047Z,12.33
2018-03-28T03:22:38.061Z,12.65
2018-03-28T03:25:06.329Z,13.43
2018-03-28T03:27:35.358Z,13.13
2018-03-28T03:30:03.623Z,12.53
2018-03-28T03:32:32.625Z,11.73
2018-03-28T03:35:01.760Z,10.48
2018-03-28T03:37:30.006Z,10.33
2018-03-28T03:39:58.268Z,11.80
2018-03-28T03:42:27.321Z,12.17
2018-03-28T03:44:55.586Z,11.85
2018-03-28T03:47:23.824Z,10.40
2018-03-28T03:49:52.848Z,11.90
2018-03-28T03:52:21.104Z,11.87
2018-03-28T03:54:50.121Z,12.00
2018-03-28T03:57:18.381Z,10.30
2018-03-28T03:59:47.398Z,8.80
2018-03-28T04:02:15.656Z,8.37
2018-03-28T04:04:44.676Z,10.00
2018-03-28T04:07:13.119Z,9.23
2018-03-28T04:09:41.380Z,10.30
2018-03-28T04:12:09.664Z,8.83
2018-03-28T04:14:39.632Z,7.30
2018-03-28T04:17:07.896Z,6.50
2018-03-28T04:19:36.912Z,5.50
2018-03-28T04:22:05.152Z,5.97
2018-03-28T04:24:33.423Z,5.73
2018-03-28T04:27:01.678Z,9.33
2018-03-28T04:29:29.920Z,10.33
2018-03-28T04:31:58.199Z,5.27
2018-03-28T04:34:27.195Z,6.23
2018-03-28T04:36:56.263Z,4.07
2018-03-28T04:39:24.517Z,4.00
2018-03-28T04:41:52.763Z,3.87
2018-03-28T04:44:21.780Z,3.35
2018-03-28T04:46:50.034Z,3.20
2018-03-28T04:49:19.134Z,3.30
2018-03-28T04:51:48.354Z,2.63
2018-03-28T04:54:16.605Z,2.77
2018-03-28T04:56:45.620Z,2.78
2018-03-28T04:59:14.761Z,2.00
2018-03-28T05:01:42.998Z,2.37
2018-03-28T05:04:11.332Z,1.60
2018-03-28T05:06:40.512Z,1.73
2018-03-28T05:09:08.760Z,1.80
2018-03-28T05:11:37.772Z,1.57
2018-03-28T05:14:06.032Z,1.50
2018-03-28T05:16:35.046Z,1.70
2018-03-28T05:19:03.284Z,2.10
2018-03-28T05:21:33.146Z,1.90
2018-03-28T05:24:01.384Z,2.20
2018-03-28T05:26:29.620Z,2.10
2018-03-28T05:28:57.876Z,2.40
2018-03-28T05:31:26.127Z,2.00
2018-03-28T05:33:54.361Z,2.37
2018-03-28T05:36:22.612Z,2.50
2018-03-28T05:38:50.865Z,2.35
2018-03-28T05:41:19.106Z,4.03
2018-03-28T05:43:47.352Z,2.20
2018-03-28T05:46:15.612Z,2.50
2018-03-28T05:48:44.639Z,2.35
2018-03-28T05:51:12.903Z,2.47
2018-03-28T05:53:41.923Z,2.57
2018-03-28T05:56:10.177Z,2.50
2018-03-28T05:58:39.206Z,3.90
2018-03-28T06:01:07.451Z,2.55
2018-03-28T06:03:36.709Z,2.60
2018-03-28T06:06:04.958Z,2.23
2018-03-28T06:08:33.192Z,2.20
2018-03-28T06:11:01.455Z,2.53
2018-03-28T06:13:29.720Z,2.08
2018-03-28T06:15:57.964Z,1.80
2018-03-28T06:18:27.017Z,2.00
2018-03-28T06:20:55.224Z,2.40
2018-03-28T06:23:23.476Z,1.60
2018-03-28T06:25:51.728Z,1.87
2018-03-28T06:28:19.980Z,1.60
2018-03-28T06:30:48.987Z,2.00
2018-03-28T06:33:17.240Z,1.92
2018-03-28T06:35:45.497Z,2.10
2018-03-28T06:38:13.733Z,1.93
2018-03-28T06:40:42.001Z,1.93
2018-03-28T06:43:11.048Z,2.00
2018-03-28T06:45:39.307Z,1.87
2018-03-28T06:48:07.571Z,2.07
2018-03-28T06:50:35.820Z,1.70
2018-03-28T06:53:04.839Z,1.95
2018-03-28T06:55:33.159Z,3.30
2018-03-28T06:58:02.129Z,3.00
2018-03-28T07:00:30.389Z,2.87
2018-03-28T07:02:59.412Z,2.30
2018-03-28T07:05:27.655Z,2.20
2018-03-28T07:07:56.698Z,2.20
2018-03-28T07:10:24.972Z,2.30
2018-03-28T07:12:53.216Z,2.07
2018-03-28T07:15:22.232Z,1.90
2018-03-28T07:17:52.176Z,3.00
2018-03-28T07:20:20.441Z,2.43
2018-03-28T07:22:48.708Z,2.10
2018-03-28T07:25:16.981Z,2.30
2018-03-28T07:27:46.002Z,2.00
2018-03-28T07:30:15.257Z,2.10
2018-03-28T07:32:43.503Z,1.90
2018-03-28T07:35:11.745Z,3.00
2018-03-28T07:37:40.768Z,2.80
2018-03-28T07:40:09.028Z,2.90
2018-03-28T07:42:38.037Z,3.20
2018-03-28T07:45:06.301Z,3.10
2018-03-28T07:47:35.320Z,3.43
2018-03-28T07:50:03.576Z,2.77
2018-03-28T07:52:32.608Z,2.60
2018-03-28T07:55:00.864Z,2.60
2018-03-28T07:57:29.120Z,1.87
2018-03-28T07:59:57.399Z,2.00
2018-03-28T08:02:25.645Z,2.00
2018-03-28T08:04:53.903Z,2.37
2018-03-28T08:07:22.179Z,1.73
2018-03-28T08:09:50.438Z,2.10
2018-03-28T08:12:19.448Z,1.90
2018-03-28T08:14:47.722Z,1.70
2018-03-28T08:17:16.736Z,1.75
2018-03-28T08:19:44.992Z,1.73
2018-03-28T08:22:14.020Z,1.80
2018-03-28T08:24:42.269Z,2.07
2018-03-28T08:27:11.306Z,1.62
2018-03-28T08:29:39.547Z,1.60
2018-03-28T08:32:09.813Z,1.80
2018-03-28T08:34:38.060Z,1.70
2018-03-28T08:37:07.076Z,2.10
2018-03-28T08:39:35.364Z,1.90
2018-03-28T08:42:03.616Z,1.93
2018-03-28T08:44:32.634Z,1.57
2018-03-28T08:47:00.904Z,1.83
2018-03-28T08:49:29.152Z,1.50
2018-03-28T08:51:57.406Z,1.97
2018-03-28T08:54:25.682Z,1.80
2018-03-28T08:56:53.929Z,2.23
2018-03-28T08:59:22.176Z,1.70
2018-03-28T09:01:50.454Z,2.10
2018-03-28T09:04:18.694Z,2.33
2018-03-28T09:06:48.177Z,2.30
2018-03-28T09:09:16.439Z,1.90
2018-03-28T09:11:45.452Z,2.17
2018-03-28T09:14:13.700Z,2.10
2018-03-28T09:16:41.964Z,2.20
2018-03-28T09:19:10.209Z,2.13
2018-03-28T09:21:38.472Z,1.98
2018-03-28T09:24:08.082Z,2.67
2018-03-28T09:26:36.336Z,2.47
2018-03-28T09:29:04.600Z,2.83
2018-03-28T09:31:32.853Z,2.47
2018-03-28T09:34:01.098Z,2.53
2018-03-28T09:36:30.116Z,2.37
2018-03-28T09:38:58.361Z,2.50
2018-03-28T09:41:27.385Z,3.00
2018-03-28T09:43:55.636Z,2.83
2018-03-28T09:46:24.649Z,2.50
2018-03-28T09:48:53.668Z,1.97
2018-03-28T09:51:21.913Z,3.12
2018-03-28T09:53:50.943Z,2.20
2018-03-28T09:56:19.189Z,3.10
2018-03-28T09:58:48.208Z,3.13
2018-03-28T10:01:22.001Z,2.62
2018-03-28T10:03:51.007Z,2.83
2018-03-28T10:06:19.260Z,3.03
2018-03-28T10:08:47.524Z,2.67
2018-03-28T10:11:15.777Z,2.00
2018-03-28T10:13:44.028Z,1.80
2018-03-28T10:16:13.049Z,1.60
2018-03-28T10:18:41.936Z,1.42
2018-03-28T10:21:10.186Z,1.70
2018-03-28T10:23:39.196Z,1.30
2018-03-28T10:26:08.215Z,1.47
2018-03-28T10:28:36.473Z,1.50
2018-03-28T10:31:05.492Z,1.30
2018-03-28T10:33:33.759Z,1.10
2018-03-28T10:36:02.793Z,1.20
2018-03-28T10:38:31.052Z,1.07
2018-03-28T10:40:59.316Z,1.20
2018-03-28T10:43:28.336Z,1.30
2018-03-28T10:45:56.593Z,1.10
2018-03-28T10:48:24.844Z,1.10
2018-03-28T10:50:53.106Z,0.80
2018-03-28T10:53:21.373Z,1.00
2018-03-28T10:55:49.628Z,0.80
2018-03-28T10:58:17.992Z,0.70
2018-03-28T11:00:46.249Z,0.70
2018-03-28T11:03:14.497Z,0.83
2018-03-28T11:05:42.760Z,0.80
2018-03-28T11:08:11.016Z,0.70
2018-03-28T11:10:39.275Z,0.57
2018-03-28T11:13:08.303Z,0.70
2018-03-28T11:15:36.580Z,0.90
2018-03-28T11:18:04.824Z,0.73
2018-03-28T11:20:33.098Z,1.93
2018-03-28T11:23:01.345Z,0.90
2018-03-28T11:25:29.606Z,0.60
2018-03-28T11:27:57.856Z,0.60
2018-03-28T11:30:26.115Z,0.80
2018-03-28T11:32:54.365Z,0.70
2018-03-28T11:35:22.627Z,0.77
2018-03-28T11:37:50.886Z,0.80
2018-03-28T11:40:19.903Z,1.40
2018-03-28T11:42:48.178Z,1.00
2018-03-28T11:45:16.437Z,1.35
2018-03-28T11:47:45.458Z,1.20
2018-03-28T11:50:13.704Z,1.30
2018-03-28T11:52:41.958Z,1.30
2018-03-28T11:55:10.200Z,1.60
2018-03-28T11:57:38.464Z,1.50
2018-03-28T12:00:07.493Z,1.20
2018-03-28T12:02:35.744Z,1.50
2018-03-28T12:05:04.756Z,1.50
2018-03-28T12:07:33.027Z,1.40
2018-03-28T12:10:02.046Z,1.60
2018-03-28T12:12:30.300Z,1.53
2018-03-28T12:14:59.342Z,1.60
2018-03-28T12:17:27.592Z,1.55
2018-03-28T12:19:55.852Z,1.50
2018-03-28T12:22:24.888Z,1.60
2018-03-28T12:24:53.136Z,1.60
2018-03-28T12:27:22.158Z,1.60
2018-03-28T12:29:50.416Z,1.80
2018-03-28T12:32:19.240Z,1.60
2018-03-28T12:34:47.489Z,1.67
2018-03-28T12:37:15.738Z,1.40
2018-03-28T12:39:44.000Z,1.60
2018-03-28T12:42:12.511Z,1.80
2018-03-28T12:44:40.767Z,1.90
2018-03-28T12:47:09.038Z,1.60
2018-03-28T12:49:37.293Z,1.70
2018-03-28T12:52:05.568Z,2.53
2018-03-28T12:54:33.816Z,2.70
2018-03-28T12:57:02.069Z,4.40
2018-03-28T12:59:30.335Z,2.97
2018-03-28T13:01:58.575Z,2.97
2018-03-28T13:04:27.604Z,6.80
2018-03-28T13:06:56.699Z,2.60
2018-03-28T13:09:24.952Z,1.70
2018-03-28T13:11:53.983Z,2.37
2018-03-28T13:14:22.250Z,1.60
2018-03-28T13:16:50.514Z,1.90
2018-03-28T13:19:18.775Z,1.80
2018-03-28T13:21:47.052Z,2.10
2018-03-28T13:24:15.301Z,1.90
2018-03-28T13:26:43.552Z,1.80
2018-03-28T13:29:11.811Z,1.70
2018-03-28T13:31:40.840Z,1.90
2018-03-28T13:34:09.753Z,1.87
2018-03-28T13:36:38.016Z,1.60
2018-03-28T13:39:06.261Z,1.97
2018-03-28T13:41:35.283Z,2.05
2018-03-28T13:44:03.546Z,1.80
2018-03-28T13:46:32.564Z,10.37
2018-03-28T13:49:00.840Z,2.00
2018-03-28T13:51:29.122Z,2.10
2018-03-28T13:53:57.383Z,2.77
2018-03-28T13:56:26.400Z,2.10
2018-03-28T13:58:54.674Z,2.00
2018-03-28T14:01:22.924Z,2.30
2018-03-28T14:03:51.958Z,1.90
2018-03-28T14:06:20.200Z,2.27
2018-03-28T14:08:48.472Z,1.80
2018-03-28T14:11:16.726Z,1.70
2018-03-28T14:13:44.987Z,1.87
2018-03-28T14:16:13.241Z,2.00
2018-03-28T14:18:42.261Z,1.83
2018-03-28T14:21:10.540Z,2.00
2018-03-28T14:23:38.791Z,1.80
2018-03-28T14:26:07.303Z,1.92
2018-03-28T14:28:35.573Z,2.10
2018-03-28T14:31:03.844Z,2.25
2018-03-28T14:33:32.872Z,2.45
2018-03-28T14:36:01.129Z,2.40
2018-03-28T14:38:30.149Z,2.50
2018-03-28T14:41:00.348Z,2.20
2018-03-28T14:43:29.455Z,2.30
2018-03-28T14:45:57.714Z,2.00
2018-03-28T14:48:26.724Z,2.20
2018-03-28T14:50:55.767Z,2.10
2018-03-28T14:53:24.021Z,2.30
2018-03-28T14:55:52.274Z,2.60
2018-03-28T14:58:22.535Z,2.40
2018-03-28T15:00:50.788Z,3.03
2018-03-28T15:03:19.812Z,6.00
2018-03-28T15:05:48.058Z,3.40
2018-03-28T15:08:17.067Z,3.43
2018-03-28T15:10:45.336Z,4.07
2018-03-28T15:13:14.440Z,3.72
2018-03-28T15:15:42.638Z,3.28
2018-03-28T15:18:10.900Z,3.50
2018-03-28T15:20:39.918Z,2.75
2018-03-28T15:23:08.180Z,2.62
2018-03-28T15:25:37.215Z,2.00
2018-03-28T15:28:05.476Z,2.30
2018-03-28T15:30:33.740Z,3.83
2018-03-28T15:33:02.750Z,2.60
2018-03-28T15:35:31.005Z,2.92
2018-03-28T15:38:00.032Z,1.90
2018-03-28T15:40:28.292Z,1.70
2018-03-28T15:42:57.311Z,1.80
2018-03-28T15:45:25.568Z,2.00
2018-03-28T15:47:54.588Z,2.97
2018-03-28T15:50:22.832Z,4.73
2018-03-28T15:52:51.861Z,12.37
2018-03-28T15:55:20.111Z,9.20
2018-03-28T15:57:49.160Z,15.43
2018-03-28T16:00:17.436Z,8.90
2018-03-28T16:02:45.680Z,6.83
2018-03-28T16:05:14.708Z,8.60
2018-03-28T16:07:42.966Z,4.43
2018-03-28T16:10:11.980Z,7.30
2018-03-28T16:12:40.323Z,8.43
2018-03-28T16:15:08.480Z,5.55
2018-03-28T16:17:36.724Z,2.70
2018-03-28T16:20:04.992Z,2.40
2018-03-28T16:22:34.608Z,3.85
2018-03-28T16:25:02.854Z,2.67
2018-03-28T16:27:31.096Z,3.25
2018-03-28T16:29:59.364Z,4.87
2018-03-28T16:32:27.617Z,1.40
2018-03-28T16:34:55.881Z,1.70
2018-03-28T16:37:24.900Z,2.60
2018-03-28T16:39:53.151Z,1.10
2018-03-28T16:42:22.167Z,1.40
2018-03-28T16:44:51.197Z,1.20
2018-03-28T16:47:19.436Z,1.50
2018-03-28T16:49:48.463Z,1.80
2018-03-28T16:52:16.700Z,1.20
2018-03-28T16:54:46.249Z,2.00
2018-03-28T16:57:14.517Z,1.70
2018-03-28T16:59:42.745Z,1.77
2018-03-28T17:02:10.997Z,2.57
2018-03-28T17:04:39.508Z,2.70
2018-03-28T17:07:07.767Z,2.40
2018-03-28T17:09:35.992Z,2.70
2018-03-28T17:12:04.248Z,2.67
2018-03-28T17:14:32.506Z,2.60
2018-03-28T17:17:01.531Z,3.00
2018-03-28T17:19:29.779Z,2.83
2018-03-28T17:21:58.035Z,3.55
2018-03-28T17:24:27.047Z,4.90
2018-03-28T17:26:56.045Z,10.63
2018-03-28T17:29:24.312Z,24.00
2018-03-28T17:31:53.323Z,5.53
2018-03-28T17:34:21.571Z,5.20
2018-03-28T17:36:49.872Z,4.90
2018-03-28T17:39:18.125Z,4.17
2018-03-28T17:41:46.414Z,2.80
2018-03-28T17:44:14.640Z,2.80
2018-03-28T17:46:42.892Z,10.67
2018-03-28T17:49:11.913Z,3.83
2018-03-28T17:51:40.156Z,3.10
2018-03-28T17:54:09.184Z,2.63
2018-03-28T17:56:37.420Z,2.90
2018-03-28T17:59:05.655Z,2.33
2018-03-28T18:01:34.188Z,2.60
2018-03-28T18:04:02.424Z,2.20
2018-03-28T18:06:30.671Z,2.17
2018-03-28T18:08:59.695Z,2.13
2018-03-28T18:11:27.952Z,2.23
2018-03-28T18:13:56.956Z,2.90
2018-03-28T18:16:25.228Z,2.30
2018-03-28T18:18:55.486Z,2.93
2018-03-28T18:21:23.789Z,2.62
2018-03-28T18:23:52.755Z,2.72
2018-03-28T18:26:20.996Z,3.12
2018-03-28T18:28:50.026Z,3.70
2018-03-28T18:31:18.277Z,4.30
2018-03-28T18:33:47.288Z,7.43
2018-03-28T18:36:15.553Z,15.43
2018-03-28T18:38:44.582Z,15.33
2018-03-28T18:41:12.820Z,14.55
2018-03-28T18:43:41.085Z,10.40
2018-03-28T18:46:09.348Z,16.17
2018-03-28T18:48:37.585Z,6.00
2018-03-28T18:51:07.844Z,7.47
2018-03-28T18:53:36.091Z,6.00
2018-03-28T18:56:05.109Z,6.20
2018-03-28T18:58:33.354Z,7.60
2018-03-28T19:01:02.900Z,6.82
2018-03-28T19:03:31.156Z,6.20
2018-03-28T19:06:00.170Z,6.97
2018-03-28T19:08:28.408Z,5.30
2018-03-28T19:10:56.676Z,10.93
2018-03-28T19:13:24.923Z,7.87
2018-03-28T19:15:53.280Z,7.78
2018-03-28T19:18:22.284Z,8.37
2018-03-28T19:20:50.784Z,8.13
2018-03-28T19:23:19.028Z,12.30
2018-03-28T19:25:48.051Z,12.60
2018-03-28T19:28:16.311Z,13.23
2018-03-28T19:30:45.324Z,13.93
2018-03-28T19:33:13.657Z,13.18
2018-03-28T19:35:41.900Z,11.23
2018-03-28T19:38:10.144Z,10.38
2018-03-28T19:40:39.170Z,9.33
2018-03-28T19:43:08.024Z,7.93
2018-03-28T19:45:36.308Z,9.57
2018-03-28T19:48:04.544Z,8.63
2018-03-28T19:50:32.787Z,8.80
2018-03-28T19:53:01.076Z,9.30
2018-03-28T19:55:30.075Z,10.00
2018-03-28T19:57:58.337Z,7.53
2018-03-28T20:00:27.437Z,8.30
2018-03-28T20:02:55.684Z,11.37
2018-03-28T20:05:23.944Z,14.50
2018-03-28T20:07:52.191Z,14.10
2018-03-28T20:10:21.229Z,14.07
2018-03-28T20:12:49.480Z,12.57
2018-03-28T20:15:17.728Z,13.35
2018-03-28T20:17:46.756Z,11.63
2018-03-28T20:20:15.000Z,13.53
2018-03-28T20:22:43.254Z,14.07
2018-03-28T20:25:11.502Z,11.07
2018-03-28T20:27:39.758Z,12.80
2018-03-28T20:30:08.779Z,13.40
2018-03-28T20:32:37.041Z,9.33
2018-03-28T20:35:06.056Z,7.17
2018-03-28T20:37:34.321Z,6.80
2018-03-28T20:40:03.330Z,6.82
2018-03-28T20:42:31.590Z,6.83
2018-03-28T20:45:00.606Z,6.93
2018-03-28T20:47:28.841Z,6.07
2018-03-28T20:49:57.088Z,6.50
2018-03-28T20:52:25.333Z,6.77
2018-03-28T20:54:54.352Z,6.40
2018-03-28T20:57:23.445Z,11.07
2018-03-28T20:59:51.684Z,8.67
2018-03-28T21:02:20.041Z,7.67
2018-03-28T21:04:48.289Z,8.13
2018-03-28T21:07:16.535Z,8.53
2018-03-28T21:09:44.792Z,6.40
2018-03-28T21:12:13.037Z,5.75
2018-03-28T21:14:41.275Z,6.50
2018-03-28T21:17:10.303Z,7.60
2018-03-28T21:19:38.596Z,8.10
2018-03-28T21:22:06.849Z,8.57
2018-03-28T21:24:35.861Z,6.20
2018-03-28T21:27:04.109Z,4.57
2018-03-28T21:29:32.349Z,4.00
2018-03-28T21:32:00.603Z,4.07
2018-03-28T21:34:29.041Z,3.50
2018-03-28T21:36:58.072Z,3.00
2018-03-28T21:39:26.342Z,2.53
2018-03-28T21:41:54.573Z,2.40
2018-03-28T21:44:22.831Z,2.20
2018-03-28T21:46:51.072Z,2.17
2018-03-28T21:49:20.548Z,2.43
2018-03-28T21:51:48.807Z,2.00
2018-03-28T21:54:17.062Z,2.00
2018-03-28T21:56:46.071Z,2.50
2018-03-28T21:59:14.368Z,1.80
2018-03-28T22:01:42.612Z,1.73
2018-03-28T22:04:11.633Z,1.80
2018-03-28T22:06:39.876Z,2.07
2018-03-28T22:09:08.280Z,1.90
2018-03-28T22:11:37.288Z,2.20
2018-03-28T22:14:05.539Z,2.13
2018-03-28T22:16:34.555Z,1.90
2018-03-28T22:19:02.808Z,1.62
2018-03-28T22:21:31.065Z,2.10
2018-03-28T22:23:59.306Z,1.77
2018-03-28T22:26:27.561Z,2.20
2018-03-28T22:28:56.572Z,2.30
2018-03-28T22:31:25.396Z,2.30
2018-03-28T22:33:53.644Z,2.17
2018-03-28T22:36:22.662Z,2.03
2018-03-28T22:38:50.909Z,2.07
2018-03-28T22:41:19.916Z,1.90
2018-03-28T22:43:48.925Z,2.45
2018-03-28T22:46:17.199Z,2.30
2018-03-28T22:48:46.213Z,2.20
2018-03-28T22:51:15.096Z,2.33
2018-03-28T22:53:43.343Z,2.10
2018-03-28T22:56:11.602Z,1.93
2018-03-28T22:58:39.849Z,1.70
2018-03-28T23:01:08.106Z,1.83
2018-03-28T23:03:36.689Z,1.70
2018-03-28T23:06:05.819Z,1.70
2018-03-28T23:08:34.070Z,1.30
2018-03-28T23:11:03.072Z,1.10
2018-03-28T23:13:32.090Z,1.20
2018-03-28T23:16:00.396Z,0.93
2018-03-28T23:18:29.349Z,1.00
2018-03-28T23:20:58.359Z,0.90
2018-03-28T23:23:26.607Z,1.00
2018-03-28T23:25:54.850Z,1.10
2018-03-28T23:28:23.107Z,0.80
2018-03-28T23:30:51.354Z,0.80
2018-03-28T23:33:20.377Z,0.90
2018-03-28T23:35:49.277Z,0.80
2018-03-28T23:38:17.541Z,0.67
2018-03-28T23:40:46.560Z,0.80
2018-03-28T23:43:14.820Z,0.60
2018-03-28T23:45:43.828Z,0.60
2018-03-28T23:48:12.076Z,0.60
2018-03-28T23:50:40.321Z,0.60
2018-03-28T23:53:08.568Z,0.43
2018-03-28T23:55:36.822Z,0.40
2018-03-28T23:58:05.837Z,0.50
